Time;durP1;ratioP1;P1;durP2;ratioP2;P2;SDS_P1;SDS_P2;PMS_P1;PMS_P2;Temp;Humidity;BMP_temperature;BMP_pressure;BME280_temperature;BME280_humidity;BME280_pressure;Samples;Min_cycle;Max_cycle;Signal;HPM_P1;HPM_P2
2020/12/11 00:00:05;;;;;;;15.65;11.95;;;0.40;99.90;;;;;;467313;253;27965;-74
2020/12/11 00:02:07;;;;;;;15.48;11.10;;;0.40;99.90;;;;;;467326;253;27533;-74
2020/12/11 00:04:08;;;;;;;14.43;10.80;;;0.30;99.90;;;;;;467320;253;27547;-74
2020/12/11 00:06:09;;;;;;;14.80;10.13;;;0.40;99.90;;;;;;467340;254;27635;-74
2020/12/11 00:08:11;;;;;;;16.27;11.95;;;0.40;99.90;;;;;;467401;254;27533;-74
2020/12/11 00:10:12;;;;;;;16.02;11.73;;;0.40;99.90;;;;;;467374;253;27493;-74
2020/12/11 00:12:13;;;;;;;15.20;11.57;;;0.40;99.90;;;;;;467221;253;28135;-74
2020/12/11 00:14:14;;;;;;;15.18;11.18;;;0.40;99.90;;;;;;467384;253;28043;-74
2020/12/11 00:16:15;;;;;;;16.77;11.52;;;0.30;99.90;;;;;;467345;253;28113;-73
2020/12/11 00:18:17;;;;;;;15.30;10.60;;;0.30;99.90;;;;;;467362;253;27624;-73
2020/12/11 00:20:18;;;;;;;14.35;11.10;;;0.40;99.90;;;;;;467332;254;27540;-74
2020/12/11 00:22:19;;;;;;;15.23;11.48;;;0.40;99.90;;;;;;467394;253;27632;-73
2020/12/11 00:24:20;;;;;;;13.60;10.48;;;0.40;99.90;;;;;;467396;254;27623;-75
2020/12/11 00:26:22;;;;;;;17.12;12.27;;;0.50;99.90;;;;;;467380;254;27575;-74
2020/12/11 00:28:23;;;;;;;14.57;11.10;;;0.50;99.90;;;;;;467401;253;28061;-74
2020/12/11 00:30:24;;;;;;;18.02;11.95;;;0.50;99.90;;;;;;467374;253;28025;-74
2020/12/11 00:32:27;;;;;;;15.02;11.35;;;0.50;99.90;;;;;;467444;254;27557;-74
2020/12/11 00:34:27;;;;;;;19.20;12.82;;;0.50;99.90;;;;;;467677;253;27503;-74
2020/12/11 00:36:28;;;;;;;14.35;11.10;;;0.50;99.90;;;;;;467571;253;27556;-75
2020/12/11 00:38:29;;;;;;;16.98;11.95;;;0.40;99.90;;;;;;467406;254;27609;-73
2020/12/11 00:40:30;;;;;;;17.58;12.88;;;0.40;99.90;;;;;;467288;251;27618;-74
2020/12/11 00:42:32;;;;;;;16.25;12.18;;;0.40;99.90;;;;;;467389;253;27557;-74
2020/12/11 00:44:33;;;;;;;17.55;12.73;;;0.40;99.90;;;;;;467374;253;28031;-74
2020/12/11 00:46:34;;;;;;;17.17;13.05;;;0.50;99.90;;;;;;467262;251;28099;-75
2020/12/11 00:48:35;;;;;;;16.62;12.45;;;0.50;99.90;;;;;;467307;253;27571;-74
2020/12/11 00:50:37;;;;;;;18.25;13.52;;;0.60;99.90;;;;;;467326;253;27536;-74
2020/12/11 00:52:38;;;;;;;17.92;12.88;;;0.60;99.90;;;;;;467295;253;27561;-74
2020/12/11 00:54:39;;;;;;;17.33;12.15;;;0.60;99.90;;;;;;466955;253;27526;-74
2020/12/11 00:56:40;;;;;;;19.42;13.18;;;0.70;99.90;;;;;;467385;253;27612;-74
2020/12/11 00:58:42;;;;;;;17.77;12.10;;;0.70;99.90;;;;;;467428;253;27571;-75
2020/12/11 01:00:43;;;;;;;18.25;12.15;;;0.70;99.90;;;;;;467415;253;28125;-74
2020/12/11 01:02:44;;;;;;;17.90;12.37;;;0.60;99.90;;;;;;467495;253;28068;-74
2020/12/11 01:04:45;;;;;;;18.62;12.90;;;0.60;99.90;;;;;;467507;253;27524;-74
2020/12/11 01:06:47;;;;;;;18.48;12.73;;;0.60;99.90;;;;;;467475;253;27557;-74
2020/12/11 01:08:48;;;;;;;18.45;12.90;;;0.60;99.90;;;;;;467472;253;27500;-74
2020/12/11 01:10:49;;;;;;;16.65;12.37;;;0.60;99.90;;;;;;467446;253;27557;-74
2020/12/11 01:12:50;;;;;;;18.98;12.18;;;0.70;99.90;;;;;;467499;253;27668;-74
2020/12/11 01:14:52;;;;;;;19.50;12.77;;;0.60;99.90;;;;;;467517;253;27984;-74
2020/12/11 01:16:53;;;;;;;18.77;13.32;;;0.70;99.90;;;;;;467541;253;28051;-74
2020/12/11 01:18:54;;;;;;;20.37;13.05;;;0.70;99.90;;;;;;467502;254;27598;-74
2020/12/11 01:20:56;;;;;;;18.10;13.60;;;0.60;99.90;;;;;;467477;251;27545;-74
2020/12/11 01:22:57;;;;;;;15.80;11.82;;;0.60;99.90;;;;;;467535;253;27562;-74
2020/12/11 01:24:58;;;;;;;17.08;12.85;;;0.60;99.90;;;;;;467540;253;27523;-74
2020/12/11 01:26:59;;;;;;;15.88;12.35;;;0.60;99.90;;;;;;467528;253;27545;-74
2020/12/11 01:29:01;;;;;;;18.30;13.23;;;0.60;99.90;;;;;;467554;253;27508;-73
2020/12/11 01:31:02;;;;;;;19.15;13.05;;;0.60;99.90;;;;;;467463;253;27996;-74
2020/12/11 01:33:03;;;;;;;18.02;12.60;;;0.60;99.90;;;;;;467500;253;29208;-75
2020/12/11 01:35:04;;;;;;;18.52;12.85;;;0.60;99.90;;;;;;467258;253;27536;-74
2020/12/11 01:37:06;;;;;;;17.20;12.18;;;0.60;99.90;;;;;;467383;254;27557;-75
2020/12/11 01:39:07;;;;;;;18.77;12.73;;;0.60;99.90;;;;;;467378;253;27995;-74
2020/12/11 01:41:08;;;;;;;19.20;12.68;;;0.60;99.90;;;;;;467330;253;27561;-74
2020/12/11 01:43:09;;;;;;;19.60;13.27;;;0.60;99.90;;;;;;467351;253;27551;-74
2020/12/11 01:45:11;;;;;;;17.92;11.80;;;0.60;99.90;;;;;;467395;253;27983;-74
2020/12/11 01:47:12;;;;;;;17.55;12.43;;;0.60;99.90;;;;;;467354;253;28079;-73
2020/12/11 01:49:13;;;;;;;17.75;13.07;;;0.60;99.90;;;;;;467310;253;28102;-75
2020/12/11 01:51:14;;;;;;;18.85;13.43;;;0.60;99.90;;;;;;467339;251;27540;-74
2020/12/11 01:53:16;;;;;;;16.52;12.73;;;0.70;99.90;;;;;;467419;253;27536;-75
2020/12/11 01:55:17;;;;;;;17.27;12.70;;;0.70;99.90;;;;;;467400;253;27612;-74
2020/12/11 01:57:18;;;;;;;19.95;13.90;;;0.60;99.90;;;;;;467426;253;27601;-74
2020/12/11 01:59:19;;;;;;;18.83;13.35;;;0.70;99.90;;;;;;467441;253;27616;-74
2020/12/11 02:01:21;;;;;;;15.63;11.30;;;0.70;99.90;;;;;;467416;253;28097;-74
2020/12/11 02:03:22;;;;;;;15.52;11.63;;;0.70;99.90;;;;;;467495;253;28183;-74
2020/12/11 02:05:23;;;;;;;16.15;12.40;;;0.80;99.90;;;;;;467413;251;27552;-74
2020/12/11 02:07:24;;;;;;;16.20;11.77;;;0.80;99.90;;;;;;467518;253;27619;-74
2020/12/11 02:09:26;;;;;;;17.37;12.68;;;0.80;99.90;;;;;;467355;253;27611;-74
2020/12/11 02:11:27;;;;;;;20.00;12.98;;;0.80;99.90;;;;;;467387;254;27598;-75
2020/12/11 02:13:28;;;;;;;17.02;12.35;;;0.90;99.90;;;;;;467093;251;27531;-74
2020/12/11 02:15:29;;;;;;;17.70;12.30;;;0.90;99.90;;;;;;466847;253;27571;-74
2020/12/11 02:17:31;;;;;;;18.37;12.90;;;0.90;99.90;;;;;;466937;253;28141;-75
2020/12/11 02:19:35;;;;;;;16.70;11.70;;;0.90;99.90;;;;;;467287;251;28233;-74
2020/12/11 02:21:36;;;;;;;17.60;12.82;;;0.90;99.90;;;;;;467256;251;27568;-74
2020/12/11 02:23:38;;;;;;;18.25;12.40;;;1.00;99.90;;;;;;467167;251;27638;-75
2020/12/11 02:25:40;;;;;;;16.27;11.32;;;0.90;99.90;;;;;;467368;253;27614;-75
2020/12/11 02:27:40;;;;;;;17.75;12.27;;;0.90;99.90;;;;;;467368;253;27616;-74
2020/12/11 02:29:41;;;;;;;17.83;12.80;;;1.00;99.90;;;;;;467381;253;27555;-74
2020/12/11 02:31:43;;;;;;;18.98;12.60;;;0.90;99.90;;;;;;467351;253;28086;-74
2020/12/11 02:33:44;;;;;;;14.32;11.20;;;0.90;99.90;;;;;;467369;253;29117;-74
2020/12/11 02:35:45;;;;;;;18.95;12.70;;;1.00;99.90;;;;;;467375;254;27572;-75
2020/12/11 02:37:46;;;;;;;17.40;11.75;;;1.00;99.90;;;;;;467389;253;27644;-74
2020/12/11 02:39:48;;;;;;;16.60;12.60;;;1.00;99.90;;;;;;467530;253;27550;-75
2020/12/11 02:41:49;;;;;;;17.42;12.32;;;1.00;99.90;;;;;;467265;253;27506;-74
2020/12/11 02:43:50;;;;;;;15.35;11.40;;;1.00;99.90;;;;;;467065;254;27586;-74
2020/12/11 02:45:51;;;;;;;17.98;12.20;;;1.00;99.90;;;;;;467448;253;27516;-74
2020/12/11 02:47:53;;;;;;;15.40;12.02;;;1.00;99.90;;;;;;467445;254;28029;-74
2020/12/11 02:49:54;;;;;;;14.20;11.10;;;1.00;99.90;;;;;;467537;254;28014;-74
2020/12/11 02:51:55;;;;;;;17.48;11.90;;;1.10;99.90;;;;;;467535;253;27493;-74
2020/12/11 02:53:56;;;;;;;15.32;11.35;;;1.10;99.90;;;;;;467565;253;27547;-74
2020/12/11 02:55:58;;;;;;;17.00;12.02;;;1.00;99.90;;;;;;467575;253;27593;-74
2020/12/11 02:57:59;;;;;;;16.35;12.60;;;1.10;99.90;;;;;;467559;253;27624;-74
2020/12/11 03:00:00;;;;;;;17.37;12.00;;;1.10;99.90;;;;;;467533;254;27553;-75
2020/12/11 03:02:01;;;;;;;19.90;13.82;;;1.10;99.90;;;;;;467527;253;27945;-74
2020/12/11 03:04:03;;;;;;;17.55;12.00;;;1.20;99.90;;;;;;467554;253;28085;-74
2020/12/11 03:06:04;;;;;;;17.42;12.07;;;1.10;99.90;;;;;;467503;253;27565;-74
2020/12/11 03:08:05;;;;;;;20.25;13.52;;;1.10;99.90;;;;;;467515;254;27603;-74
2020/12/11 03:10:06;;;;;;;16.60;12.20;;;1.10;99.90;;;;;;467420;254;27539;-74
2020/12/11 03:12:08;;;;;;;18.25;13.25;;;1.10;99.90;;;;;;467450;254;27592;-74
2020/12/11 03:14:09;;;;;;;18.50;12.25;;;1.10;99.90;;;;;;467430;251;27539;-74
2020/12/11 03:16:10;;;;;;;18.75;12.75;;;1.10;99.90;;;;;;467426;254;27548;-74
2020/12/11 03:18:11;;;;;;;16.85;12.52;;;1.10;99.90;;;;;;467375;253;27968;-74
2020/12/11 03:20:22;;;;;;;17.75;12.23;;;1.10;99.90;;;;;;467027;253;28027;-74
2020/12/11 03:22:14;;;;;;;18.58;12.80;;;1.10;99.90;;;;;;467323;254;27836;-74
2020/12/11 03:24:15;;;;;;;23.98;13.18;;;1.10;99.90;;;;;;467424;253;27535;-75
2020/12/11 03:26:17;;;;;;;21.67;14.18;;;1.10;99.90;;;;;;467496;253;27548;-75
2020/12/11 03:28:18;;;;;;;18.08;12.50;;;1.10;99.90;;;;;;467498;253;27499;-74
2020/12/11 03:30:19;;;;;;;18.85;13.32;;;1.10;99.90;;;;;;467272;251;27958;-74
2020/12/11 03:32:20;;;;;;;18.62;12.70;;;1.10;99.90;;;;;;467437;253;27581;-74
2020/12/11 03:34:22;;;;;;;21.05;14.40;;;1.10;99.90;;;;;;467447;251;28023;-74
2020/12/11 03:36:23;;;;;;;17.98;12.73;;;1.00;99.90;;;;;;467413;253;28103;-74
2020/12/11 03:38:24;;;;;;;16.58;13.23;;;1.00;99.90;;;;;;467406;253;27626;-74
2020/12/11 03:40:25;;;;;;;21.10;13.73;;;1.00;99.90;;;;;;467299;253;27540;-74
2020/12/11 03:42:27;;;;;;;19.40;14.48;;;0.90;99.90;;;;;;467459;253;27663;-74
2020/12/11 03:44:28;;;;;;;18.55;13.35;;;0.90;99.90;;;;;;467456;253;27543;-74
2020/12/11 03:46:29;;;;;;;21.00;13.77;;;0.90;99.90;;;;;;467376;253;27645;-74
2020/12/11 03:48:30;;;;;;;21.45;14.35;;;0.80;99.90;;;;;;467195;251;28938;-74
2020/12/11 03:50:32;;;;;;;19.60;13.75;;;0.80;99.90;;;;;;467130;253;28092;-73
2020/12/11 03:52:33;;;;;;;19.17;13.82;;;0.80;99.90;;;;;;467356;253;27574;-74
2020/12/11 03:54:34;;;;;;;21.73;14.18;;;0.90;99.90;;;;;;467360;253;27544;-74
2020/12/11 03:56:35;;;;;;;22.42;14.65;;;0.90;99.90;;;;;;467384;253;27656;-74
2020/12/11 03:58:37;;;;;;;20.70;14.38;;;0.80;99.90;;;;;;467381;253;27984;-74
2020/12/11 04:00:38;;;;;;;18.85;12.65;;;0.80;99.90;;;;;;467367;254;27502;-74
2020/12/11 04:02:39;;;;;;;19.15;13.82;;;0.80;99.90;;;;;;467385;254;27722;-74
2020/12/11 04:04:40;;;;;;;21.95;15.25;;;0.80;99.90;;;;;;467366;253;27968;-74
2020/12/11 04:06:42;;;;;;;20.70;13.90;;;0.80;99.90;;;;;;467438;251;27933;-74
2020/12/11 04:08:43;;;;;;;20.25;14.02;;;0.80;99.90;;;;;;467538;254;27548;-74
2020/12/11 04:10:44;;;;;;;24.80;16.02;;;0.80;99.90;;;;;;467464;253;27537;-74
2020/12/11 04:12:45;;;;;;;24.35;15.52;;;0.80;99.90;;;;;;467095;253;27527;-74
2020/12/11 04:14:47;;;;;;;26.10;15.77;;;0.70;99.90;;;;;;467250;253;27556;-74
2020/12/11 04:16:48;;;;;;;24.33;16.15;;;0.70;99.90;;;;;;467331;253;27592;-74
2020/12/11 04:18:49;;;;;;;24.45;14.85;;;0.70;99.90;;;;;;467401;253;27625;-74
2020/12/11 04:20:50;;;;;;;26.12;16.55;;;0.70;99.90;;;;;;467337;254;28764;-74
2020/12/11 04:22:52;;;;;;;22.42;14.45;;;0.80;99.90;;;;;;467353;253;28022;-74
2020/12/11 04:24:53;;;;;;;22.13;15.10;;;0.90;99.90;;;;;;467416;253;27644;-74
2020/12/11 04:26:54;;;;;;;22.52;14.20;;;0.90;99.90;;;;;;467410;253;27632;-74
2020/12/11 04:28:55;;;;;;;22.10;15.38;;;1.00;99.90;;;;;;467442;253;27536;-74
2020/12/11 04:30:57;;;;;;;24.08;14.90;;;1.00;99.90;;;;;;466982;252;27973;-75
2020/12/11 04:32:58;;;;;;;22.02;14.40;;;1.10;99.90;;;;;;467228;253;27507;-74
2020/12/11 04:34:59;;;;;;;22.90;14.93;;;1.10;99.90;;;;;;467496;253;28142;-74
2020/12/11 04:37:00;;;;;;;21.73;14.68;;;1.20;99.90;;;;;;467527;253;28013;-74
2020/12/11 04:39:02;;;;;;;23.70;15.30;;;1.10;99.90;;;;;;467501;253;28036;-74
2020/12/11 04:41:04;;;;;;;20.88;14.38;;;1.20;99.90;;;;;;467366;253;27612;-74
2020/12/11 04:43:04;;;;;;;24.75;16.30;;;1.20;99.90;;;;;;467409;253;27554;-74
2020/12/11 04:45:06;;;;;;;24.40;15.45;;;1.20;99.90;;;;;;467085;253;27545;-76
2020/12/11 04:47:07;;;;;;;22.10;14.93;;;1.30;99.90;;;;;;467318;251;27622;-73
2020/12/11 04:49:08;;;;;;;19.90;14.05;;;1.30;99.90;;;;;;467325;254;27561;-74
2020/12/11 04:51:09;;;;;;;22.83;14.65;;;1.40;99.90;;;;;;467322;253;28123;-76
2020/12/11 04:53:11;;;;;;;23.62;15.32;;;1.40;99.90;;;;;;467470;254;27958;-74
2020/12/11 04:55:12;;;;;;;21.23;15.07;;;1.30;99.90;;;;;;467421;253;27545;-74
2020/12/11 04:57:13;;;;;;;24.30;15.82;;;1.30;99.90;;;;;;467438;254;27500;-74
2020/12/11 04:59:14;;;;;;;21.70;14.50;;;1.30;99.90;;;;;;467406;254;27555;-75
2020/12/11 05:01:16;;;;;;;20.10;13.85;;;1.30;99.90;;;;;;467371;254;27561;-74
2020/12/11 05:03:17;;;;;;;21.73;14.20;;;1.40;99.90;;;;;;467441;253;27542;-74
2020/12/11 05:05:18;;;;;;;20.27;13.60;;;1.50;99.90;;;;;;467334;251;27544;-74
2020/12/11 05:07:19;;;;;;;20.25;12.90;;;1.50;99.90;;;;;;467434;253;28755;-74
2020/12/11 05:09:21;;;;;;;22.23;15.02;;;1.50;99.90;;;;;;467420;253;28092;-76
2020/12/11 05:11:22;;;;;;;21.02;13.90;;;1.50;99.90;;;;;;467321;253;27529;-74
2020/12/11 05:13:23;;;;;;;20.40;13.68;;;1.60;99.90;;;;;;467417;253;27535;-73
2020/12/11 05:15:26;;;;;;;20.42;13.90;;;1.60;99.90;;;;;;467449;253;27893;-74
2020/12/11 05:17:26;;;;;;;19.35;12.40;;;1.70;99.90;;;;;;467424;253;27988;-74
2020/12/11 05:19:27;;;;;;;22.45;14.23;;;1.70;99.90;;;;;;467256;253;27564;-75
2020/12/11 05:21:29;;;;;;;22.33;14.63;;;1.70;99.90;;;;;;467313;253;28114;-74
2020/12/11 05:23:29;;;;;;;20.55;14.32;;;1.70;99.90;;;;;;467279;254;28028;-74
2020/12/11 05:25:31;;;;;;;22.83;15.52;;;1.70;99.90;;;;;;467351;251;27540;-76
2020/12/11 05:27:32;;;;;;;21.37;13.90;;;1.70;99.90;;;;;;467368;254;27562;-74
2020/12/11 05:29:33;;;;;;;17.60;12.57;;;1.70;99.90;;;;;;467379;253;27627;-74
2020/12/11 05:31:34;;;;;;;17.95;12.73;;;1.70;99.90;;;;;;467330;253;27631;-74
2020/12/11 05:33:36;;;;;;;20.62;13.65;;;1.70;99.90;;;;;;467383;253;27535;-74
2020/12/11 05:35:37;;;;;;;21.48;13.45;;;1.70;99.90;;;;;;467410;253;27645;-74
2020/12/11 05:37:38;;;;;;;17.60;12.23;;;1.80;99.90;;;;;;467382;254;28029;-73
2020/12/11 05:39:39;;;;;;;19.48;13.20;;;1.80;99.90;;;;;;467383;253;28008;-74
2020/12/11 05:41:41;;;;;;;19.30;13.40;;;1.80;99.90;;;;;;467323;253;27540;-74
2020/12/11 05:43:42;;;;;;;18.48;12.95;;;1.80;99.90;;;;;;467415;253;27636;-75
2020/12/11 05:45:43;;;;;;;17.67;12.27;;;1.90;99.90;;;;;;467458;253;27610;-74
2020/12/11 05:47:44;;;;;;;18.85;12.65;;;1.80;99.90;;;;;;467407;251;27564;-74
2020/12/11 05:49:46;;;;;;;19.62;13.73;;;1.80;99.90;;;;;;467438;253;27556;-74
2020/12/11 05:51:47;;;;;;;18.98;13.62;;;1.90;99.90;;;;;;467277;254;27623;-74
2020/12/11 05:53:48;;;;;;;18.15;12.68;;;1.80;99.90;;;;;;467108;254;28031;-74
2020/12/11 05:55:49;;;;;;;17.27;11.40;;;1.80;99.90;;;;;;467455;254;27944;-74
2020/12/11 05:57:51;;;;;;;19.17;12.75;;;1.80;99.90;;;;;;467385;254;27550;-73
2020/12/11 05:59:52;;;;;;;18.58;12.52;;;1.80;99.90;;;;;;467379;254;27541;-74
2020/12/11 06:01:53;;;;;;;18.83;12.85;;;1.80;99.90;;;;;;467329;253;27499;-74
2020/12/11 06:03:55;;;;;;;20.98;12.90;;;1.80;99.90;;;;;;467434;252;27549;-74
2020/12/11 06:05:56;;;;;;;19.98;12.65;;;1.90;99.90;;;;;;467487;253;27632;-73
2020/12/11 06:07:57;;;;;;;19.27;13.52;;;1.90;99.90;;;;;;467408;253;27574;-74
2020/12/11 06:09:58;;;;;;;17.90;12.90;;;1.90;99.90;;;;;;467468;253;28126;-75
2020/12/11 06:12:00;;;;;;;17.75;12.23;;;1.90;99.90;;;;;;467430;253;27944;-74
2020/12/11 06:14:01;;;;;;;18.45;12.60;;;1.90;99.90;;;;;;467502;253;27618;-74
2020/12/11 06:16:02;;;;;;;17.98;11.80;;;1.90;99.90;;;;;;467517;253;27622;-74
2020/12/11 06:18:04;;;;;;;17.45;12.43;;;1.80;99.90;;;;;;467531;253;27598;-74
2020/12/11 06:20:07;;;;;;;17.05;11.70;;;1.90;99.90;;;;;;467460;253;27541;-75
2020/12/11 06:22:06;;;;;;;16.35;11.32;;;2.00;99.90;;;;;;467525;253;27571;-74
2020/12/11 06:24:07;;;;;;;16.50;12.05;;;2.00;99.90;;;;;;467522;253;28021;-74
2020/12/11 06:26:08;;;;;;;16.35;11.12;;;2.00;99.90;;;;;;467555;253;28162;-74
2020/12/11 06:28:10;;;;;;;15.95;10.70;;;1.90;99.90;;;;;;467506;253;27624;-74
2020/12/11 06:30:11;;;;;;;16.27;10.70;;;2.00;99.90;;;;;;467387;254;27557;-74
2020/12/11 06:32:12;;;;;;;14.40;10.60;;;2.00;99.90;;;;;;466854;251;27517;-74
2020/12/11 06:34:13;;;;;;;16.02;10.50;;;2.00;99.90;;;;;;466791;251;27980;-75
2020/12/11 06:36:15;;;;;;;14.23;10.57;;;2.10;99.90;;;;;;466790;253;27622;-74
2020/12/11 06:38:16;;;;;;;13.55;9.98;;;2.00;99.90;;;;;;467209;251;27619;-75
2020/12/11 06:40:17;;;;;;;13.15;9.57;;;2.00;99.90;;;;;;467280;254;28004;-74
2020/12/11 06:42:18;;;;;;;15.55;10.40;;;2.00;99.90;;;;;;467410;253;27950;-74
2020/12/11 06:44:20;;;;;;;12.00;9.50;;;2.00;99.90;;;;;;467372;253;27654;-74
2020/12/11 06:46:21;;;;;;;14.40;10.00;;;2.00;99.90;;;;;;467389;253;27540;-75
2020/12/11 06:48:22;;;;;;;14.05;9.60;;;2.10;99.90;;;;;;467200;253;27655;-74
2020/12/11 06:50:23;;;;;;;15.02;9.77;;;2.10;99.90;;;;;;467169;253;27552;-74
2020/12/11 06:52:25;;;;;;;13.05;9.45;;;2.10;99.90;;;;;;467352;254;27616;-74
2020/12/11 06:54:26;;;;;;;15.38;10.43;;;2.10;99.90;;;;;;467339;253;27648;-74
2020/12/11 06:56:27;;;;;;;16.00;10.35;;;2.10;99.90;;;;;;467356;253;27549;-74
2020/12/11 06:58:28;;;;;;;14.55;9.27;;;2.10;99.90;;;;;;467347;253;27992;-74
2020/12/11 07:00:30;;;;;;;11.10;8.63;;;2.00;99.90;;;;;;467312;253;28100;-74
2020/12/11 07:02:31;;;;;;;11.90;9.30;;;2.10;99.90;;;;;;467374;254;27548;-76
2020/12/11 07:04:32;;;;;;;14.35;9.77;;;2.00;99.90;;;;;;467367;253;27660;-74
2020/12/11 07:06:33;;;;;;;15.73;9.35;;;2.10;99.90;;;;;;467377;253;27543;-75
2020/12/11 07:08:35;;;;;;;14.30;9.18;;;2.10;99.90;;;;;;467349;253;27615;-73
2020/12/11 07:10:36;;;;;;;13.68;9.82;;;2.00;99.90;;;;;;467316;253;27549;-74
2020/12/11 07:12:37;;;;;;;14.87;10.05;;;2.10;99.90;;;;;;467384;254;27568;-73
2020/12/11 07:14:38;;;;;;;13.27;9.63;;;2.10;99.90;;;;;;467362;253;27543;-74
2020/12/11 07:16:40;;;;;;;14.50;9.60;;;2.10;99.90;;;;;;467373;253;28060;-74
2020/12/11 07:18:41;;;;;;;12.48;9.60;;;2.10;99.90;;;;;;467367;253;29047;-75
2020/12/11 07:20:42;;;;;;;14.23;9.75;;;2.10;99.90;;;;;;467332;254;28250;-74
2020/12/11 07:22:43;;;;;;;11.50;8.75;;;2.10;99.90;;;;;;467328;253;27545;-74
2020/12/11 07:24:45;;;;;;;12.40;9.13;;;2.10;99.90;;;;;;467323;253;27552;-74
2020/12/11 07:26:46;;;;;;;11.50;8.77;;;2.20;99.90;;;;;;467396;253;27502;-73
2020/12/11 07:28:47;;;;;;;13.60;9.25;;;2.10;99.90;;;;;;467471;254;27913;-73
2020/12/11 07:30:48;;;;;;;12.40;9.32;;;2.20;99.90;;;;;;467435;251;27529;-74
2020/12/11 07:32:50;;;;;;;11.93;8.07;;;2.20;99.90;;;;;;467453;253;27685;-74
2020/12/11 07:34:53;;;;;;;10.98;8.10;;;2.20;99.90;;;;;;467258;251;27517;-74
2020/12/11 07:36:55;;;;;;;12.40;9.15;;;2.10;99.90;;;;;;467334;253;28003;-74
2020/12/11 07:38:54;;;;;;;13.27;9.57;;;2.20;99.90;;;;;;467409;253;28046;-75
2020/12/11 07:40:55;;;;;;;13.35;8.60;;;2.20;99.90;;;;;;467229;253;28109;-74
2020/12/11 07:42:56;;;;;;;11.20;9.05;;;2.30;99.90;;;;;;467346;253;27633;-74
2020/12/11 07:44:57;;;;;;;10.27;8.38;;;2.30;99.90;;;;;;467371;253;27551;-74
2020/12/11 07:46:59;;;;;;;12.37;9.00;;;2.30;99.90;;;;;;467400;253;27621;-74
2020/12/11 07:49:00;;;;;;;12.07;8.50;;;2.30;99.90;;;;;;467273;253;27560;-73
2020/12/11 07:51:01;;;;;;;11.35;8.45;;;2.30;99.90;;;;;;467409;254;27605;-74
2020/12/11 07:53:02;;;;;;;10.70;8.55;;;2.30;99.90;;;;;;467503;253;27536;-74
2020/12/11 07:55:04;;;;;;;12.18;8.43;;;2.20;99.90;;;;;;467237;253;27674;-74
2020/12/11 07:57:05;;;;;;;14.45;8.02;;;2.30;99.90;;;;;;466734;253;27948;-73
2020/12/11 07:59:06;;;;;;;10.18;8.23;;;2.40;99.90;;;;;;467461;253;28054;-73
2020/12/11 08:01:07;;;;;;;12.00;8.25;;;2.40;99.90;;;;;;467455;251;29149;-73
2020/12/11 08:03:09;;;;;;;11.40;8.75;;;2.50;99.90;;;;;;467467;253;27608;-74
2020/12/11 08:05:10;;;;;;;11.18;7.57;;;2.40;99.90;;;;;;467441;253;27664;-74
2020/12/11 08:07:11;;;;;;;9.30;7.57;;;2.50;99.90;;;;;;467443;253;27497;-75
2020/12/11 08:09:12;;;;;;;9.35;7.95;;;2.50;99.90;;;;;;467295;253;27542;-74
2020/12/11 08:11:14;;;;;;;9.02;7.20;;;2.40;99.90;;;;;;467275;253;27502;-74
2020/12/11 08:13:15;;;;;;;9.48;7.20;;;2.40;99.90;;;;;;467355;254;27558;-74
2020/12/11 08:15:16;;;;;;;9.85;7.60;;;2.40;99.90;;;;;;467396;253;27621;-75
2020/12/11 08:17:17;;;;;;;12.55;7.93;;;2.50;99.90;;;;;;467376;253;27545;-74
2020/12/11 08:19:19;;;;;;;9.05;6.97;;;2.40;99.90;;;;;;467389;253;28044;-74
2020/12/11 08:21:20;;;;;;;8.55;7.20;;;2.40;99.90;;;;;;467340;253;28208;-75
2020/12/11 08:23:21;;;;;;;11.30;8.20;;;2.50;99.90;;;;;;467305;253;28015;-74
2020/12/11 08:25:22;;;;;;;10.52;7.90;;;2.60;99.90;;;;;;467331;253;29242;-74
2020/12/11 08:27:26;;;;;;;9.43;7.25;;;2.50;99.90;;;;;;467399;253;27612;-73
2020/12/11 08:29:28;;;;;;;7.93;6.22;;;2.60;99.90;;;;;;467371;253;27593;-75
2020/12/11 08:31:30;;;;;;;8.05;6.50;;;2.70;99.90;;;;;;467249;253;27568;-74
2020/12/11 08:33:30;;;;;;;8.80;7.15;;;2.70;99.90;;;;;;467347;253;27993;-75
2020/12/11 08:35:32;;;;;;;9.10;7.07;;;2.70;99.90;;;;;;467394;253;28096;-74
2020/12/11 08:37:33;;;;;;;9.70;7.12;;;2.80;99.90;;;;;;467373;253;28011;-73
2020/12/11 08:39:34;;;;;;;9.65;7.60;;;2.90;99.90;;;;;;467383;254;28213;-74
2020/12/11 08:41:39;;;;;;;8.63;6.70;;;2.90;99.90;;;;;;467315;253;28267;-74
2020/12/11 08:43:42;;;;;;;8.88;6.82;;;2.80;99.90;;;;;;467357;253;27631;-76
2020/12/11 08:45:45;;;;;;;9.25;6.65;;;2.80;99.90;;;;;;467341;253;27572;-74
2020/12/11 08:48:06;;;;;;;6.90;6.20;;;2.80;99.90;;;;;;467276;253;27541;-75
2020/12/11 08:52:02;;;;;;;7.00;5.62;;;2.80;99.90;;;;;;467447;253;27553;-73
2020/12/11 08:54:07;;;;;;;9.50;7.15;;;2.80;99.90;;;;;;467481;253;27549;-75
2020/12/11 08:56:05;;;;;;;7.97;6.40;;;2.80;99.90;;;;;;467438;253;27652;-74
2020/12/11 08:58:07;;;;;;;6.85;5.47;;;2.90;99.90;;;;;;467353;253;27553;-73
2020/12/11 09:00:07;;;;;;;7.07;6.07;;;3.00;99.90;;;;;;467343;254;27924;-74
2020/12/11 09:02:09;;;;;;;11.68;6.15;;;3.00;99.90;;;;;;467351;253;28139;-73
2020/12/11 09:04:10;;;;;;;7.65;5.72;;;3.00;99.90;;;;;;467360;253;28019;-74
2020/12/11 09:06:11;;;;;;;7.40;6.00;;;3.00;99.90;;;;;;467371;253;29208;-73
2020/12/11 09:08:12;;;;;;;7.65;6.22;;;3.10;99.90;;;;;;467308;253;27636;-74
2020/12/11 09:10:14;;;;;;;8.82;5.70;;;3.10;99.90;;;;;;467349;253;27511;-74
2020/12/11 09:12:15;;;;;;;7.55;6.00;;;3.00;99.90;;;;;;467348;251;27559;-74
2020/12/11 09:14:16;;;;;;;7.35;6.00;;;3.00;99.90;;;;;;467372;253;27548;-74
2020/12/11 09:16:17;;;;;;;7.57;5.70;;;3.00;99.90;;;;;;467435;253;27530;-74
2020/12/11 09:18:19;;;;;;;8.50;6.30;;;3.10;99.90;;;;;;467507;254;27573;-74
2020/12/11 09:20:20;;;;;;;10.68;8.43;;;3.10;99.90;;;;;;467490;254;27540;-74
2020/12/11 09:22:21;;;;;;;6.85;5.97;;;3.10;99.90;;;;;;467551;253;27547;-74
2020/12/11 09:24:22;;;;;;;7.35;6.20;;;3.10;99.90;;;;;;467562;254;27542;-74
2020/12/11 09:26:26;;;;;;;8.23;6.55;;;3.10;99.90;;;;;;467569;253;27508;-74
2020/12/11 09:28:25;;;;;;;10.52;6.68;;;3.10;99.90;;;;;;467544;253;28110;-75
2020/12/11 09:30:29;;;;;;;6.85;5.75;;;3.20;99.90;;;;;;467298;253;28146;-74
2020/12/11 09:32:38;;;;;;;7.40;5.93;;;3.20;99.90;;;;;;467308;252;28014;-74
2020/12/11 09:34:32;;;;;;;8.13;6.55;;;3.30;99.90;;;;;;467435;251;27657;-75
2020/12/11 09:36:30;;;;;;;6.32;5.37;;;3.30;99.90;;;;;;467491;252;27541;-74
2020/12/11 09:38:31;;;;;;;6.85;5.65;;;3.30;99.90;;;;;;467418;253;27679;-74
2020/12/11 09:44:56;;;;;;;5.85;5.05;;;3.30;99.90;;;;;;467382;253;27556;-75
2020/12/11 09:49:04;;;;;;;5.85;5.25;;;3.50;99.90;;;;;;468378;252;27640;-74
2020/12/11 09:51:10;;;;;;;7.62;6.87;;;3.50;99.90;;;;;;467071;251;27665;-75
2020/12/11 09:55:11;;;;;;;7.05;5.10;;;3.50;99.90;;;;;;467355;253;28149;-74
2020/12/11 09:57:12;;;;;;;7.78;5.65;;;3.60;99.90;;;;;;467348;253;29122;-74
2020/12/11 09:59:17;;;;;;;7.62;5.60;;;3.60;99.90;;;;;;467383;253;29110;-74
2020/12/11 10:01:18;;;;;;;5.50;4.72;;;3.60;99.90;;;;;;467643;251;27600;-73
2020/12/11 10:03:19;;;;;;;5.32;4.82;;;3.60;99.90;;;;;;467707;253;27525;-74
2020/12/11 10:05:17;;;;;;;7.03;5.15;;;3.60;99.90;;;;;;467627;253;27540;-73
2020/12/11 10:07:18;;;;;;;5.03;4.30;;;3.60;99.90;;;;;;467370;253;27633;-74
2020/12/11 10:09:19;;;;;;;5.45;4.70;;;3.60;99.90;;;;;;467374;253;27548;-75
2020/12/11 10:11:21;;;;;;;5.75;5.15;;;3.60;99.90;;;;;;467359;253;27613;-74
2020/12/11 10:13:22;;;;;;;6.57;4.85;;;3.70;99.90;;;;;;467436;254;27560;-74
2020/12/11 10:15:23;;;;;;;5.30;4.70;;;3.60;99.90;;;;;;467521;253;27550;-74
2020/12/11 10:17:24;;;;;;;7.12;5.62;;;3.60;99.90;;;;;;467480;253;27530;-74
2020/12/11 10:19:25;;;;;;;5.40;4.40;;;3.60;99.90;;;;;;467441;254;28032;-76
2020/12/11 10:21:29;;;;;;;5.35;4.50;;;3.70;99.90;;;;;;467273;253;28083;-74
2020/12/11 10:23:29;;;;;;;5.37;4.87;;;3.70;99.90;;;;;;467334;253;28043;-75
2020/12/11 10:25:29;;;;;;;6.30;4.87;;;3.90;99.90;;;;;;467348;254;28025;-74
2020/12/11 10:27:30;;;;;;;5.10;4.37;;;4.00;99.90;;;;;;467371;253;27545;-74
2020/12/11 10:29:32;;;;;;;4.72;4.10;;;4.10;99.90;;;;;;467393;253;27553;-75
2020/12/11 10:31:33;;;;;;;6.20;5.00;;;4.20;99.90;;;;;;467373;253;27591;-74
2020/12/11 10:33:34;;;;;;;7.00;4.50;;;4.20;99.90;;;;;;467428;253;27541;-74
2020/12/11 10:35:35;;;;;;;4.93;4.40;;;4.20;99.90;;;;;;467385;253;27908;-74
2020/12/11 10:37:37;;;;;;;9.15;4.45;;;4.30;99.90;;;;;;467457;253;27600;-74